Time;durP1;ratioP1;P1;durP2;ratioP2;P2;SDS_P1;SDS_P2;PMS_P1;PMS_P2;Temp;Humidity;BMP_temperature;BMP_pressure;BME280_temperature;BME280_humidity;BME280_pressure;Samples;Min_cycle;Max_cycle;Signal;HPM_P1;HPM_P2
2022/09/20 00:01:25;;;;;;;1999.90;999.90;;;11.00;99.90;;;;;;5115454;28;20408;-62
2022/09/20 00:03:54;;;;;;;1999.90;999.90;;;10.90;99.90;;;;;;5115360;27;20116;-62
2022/09/20 00:06:22;;;;;;;1999.90;999.90;;;10.90;99.90;;;;;;5115147;28;20045;-62
2022/09/20 00:08:49;;;;;;;1999.90;999.90;;;10.90;99.90;;;;;;5113916;28;20062;-61
2022/09/20 00:11:19;;;;;;;1999.90;999.90;;;10.90;99.90;;;;;;5116392;27;20385;-62
2022/09/20 00:13:47;;;;;;;1999.90;999.90;;;10.90;99.90;;;;;;5135483;27;20043;-61
2022/09/20 00:16:17;;;;;;;1999.90;999.90;;;10.90;99.90;;;;;;5135172;27;20051;-61
2022/09/20 00:18:46;;;;;;;1999.90;999.90;;;11.00;99.90;;;;;;5136017;27;20397;-62
2022/09/20 00:21:21;;;;;;;1999.90;999.90;;;11.00;99.90;;;;;;5118931;27;20104;-61
2022/09/20 00:23:47;;;;;;;1999.90;999.90;;;11.10;99.90;;;;;;5114549;28;20401;-61
2022/09/20 00:26:13;;;;;;;1999.90;999.90;;;11.00;99.90;;;;;;5115211;28;20054;-61
2022/09/20 00:28:40;;;;;;;1999.90;999.90;;;11.00;99.90;;;;;;5115089;27;20040;-62
2022/09/20 00:31:06;;;;;;;1999.90;999.90;;;11.00;99.90;;;;;;5113249;28;20046;-62
2022/09/20 00:36:17;;;;;;;1999.90;999.90;;;11.10;99.90;;;;;;5122199;27;20055;-61
2022/09/20 00:38:42;;;;;;;1999.90;999.90;;;11.00;99.90;;;;;;5120771;27;20446;-61
2022/09/20 00:41:09;;;;;;;1999.90;999.90;;;10.90;99.90;;;;;;5114229;28;20497;-61
2022/09/20 00:43:43;;;;;;;1999.90;999.90;;;10.90;99.90;;;;;;5131188;27;20074;-62
2022/09/20 00:46:21;;;;;;;1999.90;999.90;;;10.90;99.90;;;;;;5132328;27;20070;-62
2022/09/20 00:48:49;;;;;;;1999.90;999.90;;;10.80;99.90;;;;;;5116937;27;20077;-62
2022/09/20 00:51:20;;;;;;;1999.90;999.90;;;10.80;99.90;;;;;;5135160;27;20122;-61
2022/09/20 00:53:48;;;;;;;1999.90;999.90;;;10.70;99.90;;;;;;5135334;27;20081;-61
2022/09/20 00:56:19;;;;;;;1999.90;999.90;;;10.70;99.90;;;;;;5121729;27;20039;-62
2022/09/20 00:58:50;;;;;;;1999.90;999.90;;;10.60;99.90;;;;;;5114188;28;20514;-62
2022/09/20 01:01:16;;;;;;;1999.90;999.90;;;10.70;99.90;;;;;;5114108;28;20055;-61
2022/09/20 01:03:42;;;;;;;1999.90;999.90;;;10.60;99.90;;;;;;5114112;27;20044;-62
2022/09/20 01:06:11;;;;;;;1999.90;999.90;;;10.60;99.90;;;;;;5114004;28;20043;-61
2022/09/20 01:08:40;;;;;;;1999.90;999.90;;;10.50;99.90;;;;;;5114377;27;20043;-62
2022/09/20 01:11:05;;;;;;;1999.90;999.90;;;10.50;99.90;;;;;;5113157;28;20047;-62
2022/09/20 01:13:31;;;;;;;1999.90;999.90;;;10.60;99.90;;;;;;5112381;28;20545;-62
2022/09/20 01:15:59;;;;;;;1999.90;999.90;;;10.70;99.90;;;;;;5114011;28;20059;-62
2022/09/20 01:18:27;;;;;;;1999.90;999.90;;;10.90;99.90;;;;;;5113837;28;20074;-62
2022/09/20 01:20:53;;;;;;;1999.90;999.90;;;10.90;99.90;;;;;;5116712;27;20043;-62
2022/09/20 01:23:25;;;;;;;1999.90;999.90;;;10.90;99.90;;;;;;5117444;27;20054;-61
2022/09/20 01:25:52;;;;;;;1999.90;999.90;;;10.90;99.90;;;;;;5112184;28;20181;-61
2022/09/20 01:28:17;;;;;;;1999.90;999.90;;;11.00;99.90;;;;;;5113501;28;20486;-62
2022/09/20 01:30:59;;;;;;;1999.90;999.90;;;11.00;99.90;;;;;;5113998;27;20124;-61
2022/09/20 01:33:47;;;;;;;1999.90;999.90;;;11.00;99.90;;;;;;5113650;28;20100;-61
2022/09/20 01:36:19;;;;;;;1999.90;999.90;;;11.00;99.90;;;;;;5119297;27;20168;-61
2022/09/20 01:39:07;;;;;;;1999.90;999.90;;;11.10;99.90;;;;;;5134308;27;20051;-61
2022/09/20 01:41:38;;;;;;;1999.90;999.90;;;11.10;99.90;;;;;;5109554;27;20104;-61
2022/09/20 01:44:21;;;;;;;1999.90;999.90;;;11.20;99.90;;;;;;5134375;27;20039;-61
2022/09/20 01:46:52;;;;;;;1999.90;999.90;;;11.30;99.90;;;;;;5134130;27;20059;-61
2022/09/20 01:49:52;;;;;;;1999.90;999.90;;;11.30;99.90;;;;;;5114880;27;20051;-61
2022/09/20 01:52:55;;;;;;;1999.90;999.90;;;11.30;99.90;;;;;;5124812;27;20079;-61
2022/09/20 01:55:22;;;;;;;;;;;11.30;99.90;;;;;;5113316;28;20051;-61
2022/09/20 01:58:16;;;;;;;1999.90;999.90;;;11.30;99.90;;;;;;5123141;27;19919;-61
2022/09/20 02:01:25;;;;;;;1999.90;999.90;;;11.30;99.90;;;;;;5133805;27;20051;-61
2022/09/20 02:04:13;;;;;;;1999.90;999.90;;;11.20;99.90;;;;;;5114619;28;20090;-61
2022/09/20 02:06:48;;;;;;;1999.90;999.90;;;11.20;99.90;;;;;;5123997;27;20039;-61
2022/09/20 02:09:35;;;;;;;1999.90;999.90;;;11.20;99.90;;;;;;5113015;28;20114;-61
2022/09/20 02:12:11;;;;;;;1999.90;999.90;;;11.20;99.90;;;;;;5112997;28;20044;-61
2022/09/20 02:14:45;;;;;;;1999.90;999.90;;;11.20;99.90;;;;;;5115111;27;20039;-62
2022/09/20 02:17:17;;;;;;;1999.90;999.90;;;11.20;99.90;;;;;;5133396;27;20074;-61
2022/09/20 02:20:26;;;;;;;1999.90;999.90;;;11.20;99.90;;;;;;5133576;28;20058;-61
2022/09/20 02:23:12;;;;;;;1999.90;999.90;;;11.10;99.90;;;;;;5137452;27;20061;-61
2022/09/20 02:25:45;;;;;;;1999.90;999.90;;;11.20;99.90;;;;;;5101583;28;20051;-61
2022/09/20 02:28:38;;;;;;;1999.90;999.90;;;11.20;99.90;;;;;;5119593;28;20081;-61
2022/09/20 02:31:21;;;;;;;1999.90;999.90;;;11.20;99.90;;;;;;5119614;28;20039;-61
2022/09/20 02:34:07;;;;;;;1999.90;999.90;;;11.10;99.90;;;;;;5112769;28;20054;-61
2022/09/20 02:36:38;;;;;;;1999.90;999.90;;;11.10;99.90;;;;;;5120332;27;20043;-61
2022/09/20 02:39:14;;;;;;;1999.90;999.90;;;11.10;99.90;;;;;;5121572;27;20047;-60
2022/09/20 02:41:56;;;;;;;1999.90;999.90;;;11.10;99.90;;;;;;5107846;28;20054;-61
2022/09/20 02:44:28;;;;;;;1999.90;999.90;;;11.10;99.90;;;;;;5131487;27;20136;-61
2022/09/20 02:47:19;;;;;;;1999.90;999.90;;;11.00;99.90;;;;;;5140160;27;20047;-61
2022/09/20 02:50:01;;;;;;;1999.90;999.90;;;11.00;99.90;;;;;;5140006;27;20288;-61
2022/09/20 02:52:45;;;;;;;1999.90;999.90;;;10.90;99.90;;;;;;5100923;28;20035;-61
2022/09/20 02:55:20;;;;;;;1999.90;999.90;;;10.90;99.90;;;;;;5083954;28;20542;-61
2022/09/20 02:57:58;;;;;;;1999.90;999.90;;;10.90;99.90;;;;;;5119326;28;20067;-61
2022/09/20 03:00:31;;;;;;;1999.90;999.90;;;10.90;99.90;;;;;;5124867;27;20399;-61
2022/09/20 03:02:58;;;;;;;;;;;10.80;99.90;;;;;;5140022;27;20495;-61
2022/09/20 03:05:47;;;;;;;1999.90;999.90;;;10.80;99.90;;;;;;5121171;27;19920;-61
2022/09/20 03:08:27;;;;;;;1999.90;999.90;;;10.80;99.90;;;;;;5133598;27;20040;-62
2022/09/20 03:11:28;;;;;;;1999.90;999.90;;;10.70;99.90;;;;;;5119367;27;20051;-61
2022/09/20 03:14:10;;;;;;;1999.90;999.90;;;10.60;99.90;;;;;;5119195;28;20085;-61
2022/09/20 03:17:01;;;;;;;1999.90;999.90;;;10.50;99.90;;;;;;5118856;27;20055;-61
2022/09/20 03:20:04;;;;;;;1999.90;999.90;;;10.40;99.90;;;;;;5117793;28;20074;-61
2022/09/20 03:22:55;;;;;;;1999.90;999.90;;;10.40;99.90;;;;;;5119542;27;20048;-61
2022/09/20 03:25:37;;;;;;;1999.90;999.90;;;10.40;99.90;;;;;;5120818;27;20050;-61
2022/09/20 03:28:16;;;;;;;1999.90;999.90;;;10.20;99.90;;;;;;5120983;27;20126;-61
2022/09/20 03:30:58;;;;;;;1999.90;999.90;;;10.20;99.90;;;;;;5139867;27;20047;-61
2022/09/20 03:33:38;;;;;;;1999.90;999.90;;;10.10;99.90;;;;;;5137950;27;20403;-61
2022/09/20 03:36:21;;;;;;;1999.90;999.90;;;10.00;99.90;;;;;;5119015;27;20062;-61
2022/09/20 03:39:24;;;;;;;1999.90;999.90;;;9.90;99.90;;;;;;5127021;27;20043;-61
2022/09/20 03:42:17;;;;;;;1999.90;999.90;;;9.80;99.90;;;;;;5118122;27;20051;-61
2022/09/20 03:45:14;;;;;;;1999.90;999.90;;;9.60;99.90;;;;;;5100250;27;20653;-61
2022/09/20 03:48:12;;;;;;;1999.90;999.90;;;9.40;99.90;;;;;;5135911;27;20472;-61
2022/09/20 03:50:48;;;;;;;1999.90;999.90;;;9.40;99.90;;;;;;5136150;27;20082;-61
2022/09/20 03:53:39;;;;;;;1999.90;999.90;;;9.30;99.90;;;;;;5132096;27;20051;-61
2022/09/20 03:56:23;;;;;;;1999.90;999.90;;;9.20;99.90;;;;;;5117447;27;20047;-61
2022/09/20 03:59:13;;;;;;;1999.90;999.90;;;9.20;99.90;;;;;;5136280;27;20049;-61
2022/09/20 04:01:57;;;;;;;1999.90;999.90;;;9.10;99.90;;;;;;5112854;28;20517;-61
2022/09/20 04:04:39;;;;;;;1999.90;999.90;;;9.00;99.90;;;;;;5115907;28;20048;-61
2022/09/20 04:07:15;;;;;;;1999.90;999.90;;;9.30;99.90;;;;;;5114325;28;20052;-61
2022/09/20 04:09:50;;;;;;;1999.90;999.90;;;8.80;99.90;;;;;;5114221;27;20512;-61
2022/09/20 04:12:41;;;;;;;1999.90;999.90;;;8.80;99.90;;;;;;5115386;28;20047;-61
2022/09/20 04:15:31;;;;;;;1999.90;999.90;;;8.70;99.90;;;;;;5113407;28;20059;-61
2022/09/20 04:18:16;;;;;;;1999.90;999.90;;;8.60;99.90;;;;;;5115305;28;20126;-61
2022/09/20 04:20:58;;;;;;;1999.90;999.90;;;8.40;99.90;;;;;;5114620;28;20116;-61
2022/09/20 04:23:51;;;;;;;1999.90;999.90;;;8.30;99.90;;;;;;5114677;28;20043;-61
2022/09/20 04:26:25;;;;;;;1999.90;999.90;;;8.30;99.90;;;;;;5114951;28;20050;-61
2022/09/20 04:29:14;;;;;;;1999.90;999.90;;;8.30;99.90;;;;;;5130532;27;20062;-61
2022/09/20 04:31:49;;;;;;;1999.90;999.90;;;8.30;99.90;;;;;;5116971;27;20503;-61
2022/09/20 04:36:27;;;;;;;1999.90;999.90;;;8.30;99.90;;;;;;5116996;27;20053;-61
2022/09/20 04:37:25;;;;;;;1999.90;999.90;;;8.30;99.90;;;;;;5127110;27;20404;-61
2022/09/20 04:40:13;;;;;;;1999.90;999.90;;;8.30;99.90;;;;;;5112988;28;20051;-61
2022/09/20 04:43:06;;;;;;;1999.90;999.90;;;8.30;99.90;;;;;;5114996;28;20054;-61
2022/09/20 04:45:55;;;;;;;1999.90;999.90;;;8.20;99.90;;;;;;5112881;28;20056;-61
2022/09/20 04:48:43;;;;;;;1999.90;999.90;;;8.20;99.90;;;;;;5114749;28;20047;-61
2022/09/20 04:51:41;;;;;;;1999.90;999.90;;;8.10;99.90;;;;;;5114160;28;20473;-61
2022/09/20 04:54:36;;;;;;;1999.90;999.90;;;8.10;99.90;;;;;;5114315;27;20042;-61
2022/09/20 04:57:35;;;;;;;1999.90;999.90;;;8.00;99.90;;;;;;5113235;28;20066;-61
2022/09/20 05:00:09;;;;;;;1999.90;999.90;;;8.00;99.90;;;;;;5113255;28;20044;-61
2022/09/20 05:03:10;;;;;;;1999.90;999.90;;;8.00;99.90;;;;;;5114455;27;20487;-61
2022/09/20 05:06:04;;;;;;;1999.90;999.90;;;8.00;99.90;;;;;;5114044;28;20043;-61
2022/09/20 05:08:49;;;;;;;1999.90;999.90;;;8.10;99.90;;;;;;5113783;28;20056;-61
2022/09/20 05:11:52;;;;;;;1999.90;999.90;;;8.10;99.90;;;;;;5114480;28;20044;-61
2022/09/20 05:14:35;;;;;;;1999.90;999.90;;;8.10;99.90;;;;;;5116319;27;20541;-61
2022/09/20 05:17:24;;;;;;;1999.90;999.90;;;8.00;99.90;;;;;;5134035;27;20046;-61
2022/09/20 05:20:06;;;;;;;1999.90;999.90;;;8.00;99.90;;;;;;5133889;27;20539;-61
2022/09/20 05:22:49;;;;;;;1999.90;999.90;;;8.00;99.90;;;;;;5113215;28;20504;-61
2022/09/20 05:25:46;;;;;;;1999.90;999.90;;;8.00;99.90;;;;;;5112736;28;20048;-61
2022/09/20 05:28:22;;;;;;;1999.90;999.90;;;8.00;99.90;;;;;;5114255;28;20046;-61
2022/09/20 05:30:53;;;;;;;1999.90;999.90;;;8.00;99.90;;;;;;5113740;28;20437;-61
2022/09/20 05:33:23;;;;;;;1999.90;999.90;;;8.00;99.90;;;;;;5113604;28;20058;-61
2022/09/20 05:36:06;;;;;;;1999.90;999.90;;;8.00;99.90;;;;;;5110915;27;20127;-60
2022/09/20 05:38:42;;;;;;;;;;;8.00;99.90;;;;;;5124900;27;20468;-61
2022/09/20 05:41:22;;;;;;;1999.90;999.90;;;8.00;99.90;;;;;;5116194;27;19971;-61
2022/09/20 05:44:11;;;;;;;1999.90;999.90;;;8.00;99.90;;;;;;5131770;27;20031;-61
2022/09/20 05:46:56;;;;;;;1999.90;999.90;;;8.00;99.90;;;;;;5133461;27;20504;-61
2022/09/20 05:49:46;;;;;;;1999.90;999.90;;;8.00;99.90;;;;;;5113558;28;20051;-61
2022/09/20 05:52:30;;;;;;;1999.90;999.90;;;8.00;99.90;;;;;;5121404;27;20446;-61
2022/09/20 05:55:29;;;;;;;1999.90;999.90;;;8.10;99.90;;;;;;5108883;27;20386;-61
2022/09/20 05:58:15;;;;;;;1999.90;999.90;;;8.10;99.90;;;;;;5108190;28;20048;-61
2022/09/20 06:00:48;;;;;;;1999.90;999.90;;;8.20;99.90;;;;;;5112658;28;20054;-60
2022/09/20 06:03:38;;;;;;;1999.90;999.90;;;8.40;99.90;;;;;;5113671;28;20431;-61
2022/09/20 06:06:09;;;;;;;1999.90;999.90;;;8.60;99.90;;;;;;5113192;28;20119;-61
2022/09/20 06:08:38;;;;;;;;;;;8.80;99.90;;;;;;5112761;28;20048;-61
2022/09/20 06:11:07;;;;;;;;;;;9.00;99.90;;;;;;5113686;28;19920;-61
2022/09/20 06:13:32;;;;;;;;;;;9.10;99.90;;;;;;5113977;28;21232;-61
2022/09/20 06:16:00;;;;;;;;;;;9.30;99.90;;;;;;5112691;28;20010;-61
2022/09/20 06:18:30;;;;;;;;;;;9.40;99.90;;;;;;5112393;28;19970;-61
2022/09/20 06:21:18;;;;;;;;;;;9.40;99.90;;;;;;5113556;28;20390;-61
2022/09/20 06:23:44;;;;;;;1999.90;999.90;;;9.40;99.90;;;;;;5112202;28;19965;-61
2022/09/20 06:26:19;;;;;;;1999.90;999.90;;;9.50;99.90;;;;;;5113069;28;20083;-61
2022/09/20 06:28:50;;;;;;;1999.90;999.90;;;9.60;99.90;;;;;;5111604;28;20087;-61
2022/09/20 06:31:17;;;;;;;1999.90;999.90;;;9.80;99.90;;;;;;5127566;28;20494;-60
2022/09/20 06:33:57;;;;;;;1999.90;999.90;;;9.90;99.90;;;;;;5124480;28;20553;-60
2022/09/20 06:42:16;;;;;;;1999.90;999.90;;;9.90;99.90;;;;;;5112529;28;20044;-61
2022/09/20 06:44:42;;;;;;;1999.90;999.90;;;10.00;99.90;;;;;;5096588;28;20065;-61
2022/09/20 06:47:10;;;;;;;1999.90;999.90;;;9.90;99.90;;;;;;5122834;28;20067;-61
2022/09/20 06:49:36;;;;;;;1999.90;999.90;;;9.90;99.90;;;;;;5122380;28;20062;-61
2022/09/20 06:52:04;;;;;;;1999.90;999.90;;;9.80;99.90;;;;;;5121694;28;20048;-61
2022/09/20 06:54:31;;;;;;;1999.90;999.90;;;9.90;99.90;;;;;;5121505;28;20404;-61
2022/09/20 06:56:57;;;;;;;1999.90;999.90;;;9.90;99.90;;;;;;5118817;28;20106;-61
2022/09/20 06:59:22;;;;;;;1999.90;999.90;;;9.90;99.90;;;;;;5122875;28;20583;-61
2022/09/20 07:01:48;;;;;;;1999.90;999.90;;;9.90;99.90;;;;;;5117151;28;20062;-61
2022/09/20 07:04:14;;;;;;;1999.90;999.90;;;9.90;99.90;;;;;;5125422;28;20045;-61
2022/09/20 07:06:40;;;;;;;1999.90;999.90;;;10.20;99.90;;;;;;5122338;28;20040;-61
2022/09/20 07:09:06;;;;;;;1999.90;999.90;;;10.30;99.90;;;;;;5119375;27;20508;-62
2022/09/20 07:11:33;;;;;;;1999.90;999.90;;;10.60;99.90;;;;;;5126612;27;20082;-61
2022/09/20 07:14:00;;;;;;;1999.90;999.90;;;10.80;99.90;;;;;;5136521;27;20043;-61
2022/09/20 07:16:26;;;;;;;1999.90;999.90;;;11.00;99.90;;;;;;5130625;27;20420;-61
2022/09/20 07:18:52;;;;;;;1999.90;999.90;;;11.20;99.90;;;;;;5136072;27;20096;-61
2022/09/20 07:21:19;;;;;;;1999.90;999.90;;;11.30;99.90;;;;;;5117946;27;20039;-61
2022/09/20 07:23:47;;;;;;;1999.90;999.90;;;11.30;99.90;;;;;;5136561;27;20045;-61
2022/09/20 07:26:21;;;;;;;1999.90;999.90;;;11.30;99.90;;;;;;5117170;27;20048;-61
2022/09/20 07:28:48;;;;;;;1999.90;999.90;;;11.30;99.90;;;;;;5116024;28;20090;-61
2022/09/20 07:31:15;;;;;;;1999.90;999.90;;;11.20;99.90;;;;;;5116315;28;20051;-61
2022/09/20 07:33:41;;;;;;;1999.90;999.90;;;11.20;99.90;;;;;;5130956;27;20028;-61
2022/09/20 07:36:08;;;;;;;1999.90;999.90;;;11.20;99.90;;;;;;5128247;27;20418;-61
2022/09/20 07:38:34;;;;;;;1999.90;999.90;;;11.10;99.90;;;;;;5115971;28;20047;-61
2022/09/20 07:41:01;;;;;;;1999.90;999.90;;;11.10;99.90;;;;;;5126008;27;20047;-61
2022/09/20 07:43:28;;;;;;;1999.90;999.90;;;11.10;99.90;;;;;;5125172;27;20461;-61
2022/09/20 07:45:56;;;;;;;1999.90;999.90;;;11.10;99.90;;;;;;5136771;27;20126;-61
2022/09/20 07:48:24;;;;;;;1999.90;999.90;;;11.20;99.90;;;;;;5136063;27;20073;-61
2022/09/20 07:50:54;;;;;;;1999.90;999.90;;;11.20;99.90;;;;;;5133203;27;20078;-61
2022/09/20 07:53:20;;;;;;;1999.90;999.90;;;11.40;99.90;;;;;;5133153;27;20051;-60
2022/09/20 07:56:08;;;;;;;1999.90;999.90;;;11.60;99.90;;;;;;5136640;27;20054;-61
2022/09/20 07:58:35;;;;;;;1999.90;999.90;;;11.70;99.90;;;;;;5135652;27;20042;-61
2022/09/20 08:01:07;;;;;;;1999.90;999.90;;;11.80;99.90;;;;;;5116881;27;20051;-61
2022/09/20 08:03:33;;;;;;;1999.90;999.90;;;11.90;99.90;;;;;;5136349;27;20388;-61
2022/09/20 08:06:02;;;;;;;1999.90;999.90;;;12.00;99.90;;;;;;5135799;27;20047;-61
2022/09/20 08:08:32;;;;;;;1999.90;999.90;;;12.10;99.90;;;;;;5133705;27;20072;-61
2022/09/20 08:11:04;;;;;;;1999.90;999.90;;;12.30;99.90;;;;;;5114353;28;20451;-61
2022/09/20 08:13:30;;;;;;;1999.90;999.90;;;12.50;99.90;;;;;;5115199;28;20473;-61
2022/09/20 08:16:02;;;;;;;1999.90;999.90;;;12.70;99.90;;;;;;5113370;28;20335;-61
2022/09/20 08:18:28;;;;;;;1999.90;999.90;;;12.90;99.90;;;;;;5116938;27;20051;-61
2022/09/20 08:20:54;;;;;;;1999.90;999.90;;;13.00;99.90;;;;;;5135172;27;20047;-61
2022/09/20 08:23:20;;;;;;;1999.90;999.90;;;13.20;99.90;;;;;;5135402;27;20049;-61
2022/09/20 08:25:47;;;;;;;1999.90;999.90;;;13.30;99.90;;;;;;5135720;27;20468;-61
2022/09/20 08:28:12;;;;;;;1999.90;999.90;;;13.40;99.90;;;;;;5116513;27;20104;-61
2022/09/20 08:30:39;;;;;;;1999.90;999.90;;;13.50;99.90;;;;;;5135152;27;20043;-61
2022/09/20 08:33:05;;;;;;;1999.90;999.90;;;13.70;99.90;;;;;;5135557;27;20775;-61
2022/09/20 08:35:34;;;;;;;1999.90;999.90;;;13.90;99.90;;;;;;5128801;27;20044;-61
2022/09/20 08:38:00;;;;;;;1999.90;999.90;;;14.10;99.90;;;;;;5116075;27;20568;-61
2022/09/20 08:40:29;;;;;;;1999.90;999.90;;;14.30;99.90;;;;;;5126970;27;20114;-61
2022/09/20 08:42:56;;;;;;;1999.90;999.90;;;14.40;99.90;;;;;;5134690;27;20408;-61
2022/09/20 08:45:24;;;;;;;1999.90;999.90;;;14.50;99.90;;;;;;5120504;27;20127;-61
2022/09/20 08:47:57;;;;;;;1999.90;999.90;;;14.60;99.90;;;;;;5114570;28;20056;-61
2022/09/20 08:50:23;;;;;;;1999.90;999.90;;;14.80;99.90;;;;;;5114248;28;20040;-61
2022/09/20 08:52:53;;;;;;;1999.90;999.90;;;15.10;99.90;;;;;;5114751;27;20039;-61
2022/09/20 08:55:22;;;;;;;1999.90;999.90;;;15.20;99.90;;;;;;5114961;28;20050;-61
2022/09/20 08:57:52;;;;;;;1999.90;999.90;;;15.20;99.90;;;;;;5114084;28;20084;-61
2022/09/20 09:00:23;;;;;;;1999.90;999.90;;;15.10;99.90;;;;;;5113215;28;20426;-61
2022/09/20 09:02:54;;;;;;;1999.90;999.90;;;15.10;99.90;;;;;;5114516;27;20164;-61
2022/09/20 09:05:36;;;;;;;1999.90;999.90;;;15.10;99.90;;;;;;5113805;28;20039;-62
2022/09/20 09:08:14;;;;;;;1999.90;999.90;;;14.90;99.90;;;;;;5114366;28;20075;-61
2022/09/20 09:10:41;;;;;;;1999.90;999.90;;;14.90;99.90;;;;;;5114164;27;20035;-61
2022/09/20 09:13:19;;;;;;;1999.90;999.90;;;15.10;99.90;;;;;;5127391;27;20469;-61
2022/09/20 09:15:52;;;;;;;1999.90;999.90;;;15.20;99.90;;;;;;5134272;27;20043;-61
2022/09/20 09:18:17;;;;;;;1999.90;999.90;;;15.40;99.90;;;;;;5134396;27;20051;-61
2022/09/20 09:20:45;;;;;;;1999.90;999.90;;;15.60;99.90;;;;;;5119353;27;20051;-61
2022/09/20 09:23:24;;;;;;;1999.90;999.90;;;15.60;99.90;;;;;;5112854;28;20083;-61
2022/09/20 09:25:51;;;;;;;1999.90;999.90;;;15.40;99.90;;;;;;5120193;27;20125;-61
2022/09/20 09:28:22;;;;;;;1999.90;999.90;;;14.90;99.90;;;;;;5116436;27;20042;-61
2022/09/20 09:30:48;;;;;;;1999.90;999.90;;;14.70;99.90;;;;;;5128921;27;20047;-61
2022/09/20 09:33:29;;;;;;;1999.90;999.90;;;14.50;99.90;;;;;;5133126;27;20083;-61
2022/09/20 09:35:58;;;;;;;1999.90;999.90;;;14.40;99.90;;;;;;5127089;27;20043;-61
2022/09/20 09:38:27;;;;;;;1999.90;999.90;;;14.50;99.90;;;;;;5122507;27;20088;-61
2022/09/20 09:40:57;;;;;;;1999.90;999.90;;;14.90;99.90;;;;;;5123914;27;20052;-61
2022/09/20 09:43:28;;;;;;;1999.90;999.90;;;15.20;99.90;;;;;;5113350;28;20077;-61
2022/09/20 09:46:15;;;;;;;1999.90;999.90;;;15.40;99.90;;;;;;5114230;27;20101;-61
2022/09/20 09:48:40;;;;;;;1999.90;999.90;;;15.40;99.90;;;;;;5120724;27;20097;-61
2022/09/20 09:51:09;;;;;;;1999.90;999.90;;;15.30;99.90;;;;;;5125351;27;20043;-61
2022/09/20 09:53:36;;;;;;;1999.90;999.90;;;15.20;99.90;;;;;;5133668;27;20039;-61
2022/09/20 09:56:10;;;;;;;1999.90;999.90;;;15.40;99.90;;;;;;5119476;27;20489;-61
2022/09/20 09:58:48;;;;;;;1999.90;999.90;;;15.70;99.90;;;;;;5113752;28;20371;-61
2022/09/20 10:01:40;;;;;;;1999.90;999.90;;;16.00;99.90;;;;;;5112913;28;20060;-61
2022/09/20 10:04:30;;;;;;;1999.90;999.90;;;16.40;99.90;;;;;;5113298;27;20081;-61
2022/09/20 10:07:08;;;;;;;1999.90;999.90;;;16.40;99.90;;;;;;5113174;28;20063;-61
2022/09/20 10:09:55;;;;;;;1999.90;999.90;;;16.50;99.90;;;;;;5116112;27;20443;-61
2022/09/20 10:12:50;;;;;;;1999.90;999.90;;;16.80;99.90;;;;;;5118880;28;20126;-61
2022/09/20 10:15:37;;;;;;;1999.90;999.90;;;17.00;99.90;;;;;;5117947;27;20207;-61
2022/09/20 10:18:30;;;;;;;1999.90;999.90;;;17.10;99.90;;;;;;5113172;28;20075;-60
2022/09/20 10:21:06;;;;;;;1999.90;999.90;;;17.10;99.90;;;;;;5094334;28;20054;-61
2022/09/20 10:23:55;;;;;;;1999.90;999.90;;;17.00;99.90;;;;;;5095146;28;20048;-61
2022/09/20 10:26:37;;;;;;;1999.90;999.90;;;16.90;99.90;;;;;;5094635;28;20051;-61
2022/09/20 10:29:22;;;;;;;1999.90;999.90;;;16.80;99.90;;;;;;5130289;28;20075;-60
2022/09/20 10:32:26;;;;;;;1999.90;999.90;;;16.80;99.90;;;;;;5120514;28;20043;-61
2022/09/20 10:34:55;;;;;;;1999.90;999.90;;;16.80;99.90;;;;;;5115501;28;20098;-61
2022/09/20 10:37:47;;;;;;;1999.90;999.90;;;16.90;99.90;;;;;;5132019;28;20134;-61
2022/09/20 10:40:13;;;;;;;1999.90;999.90;;;17.00;99.90;;;;;;5128838;28;20054;-61
2022/09/20 10:45:46;;;;;;;1999.90;999.90;;;17.40;99.90;;;;;;5117482;27;20393;-61
2022/09/20 10:48:23;;;;;;;1999.90;999.90;;;17.70;99.90;;;;;;5125096;27;20512;-61
2022/09/20 10:50:57;;;;;;;1999.90;999.90;;;17.90;99.90;;;;;;5127081;27;20488;-61
2022/09/20 10:53:28;;;;;;;1999.90;999.90;;;18.10;99.90;;;;;;5124578;27;20488;-61
2022/09/20 10:56:14;;;;;;;1999.90;999.90;;;18.30;97.70;;;;;;5130148;27;20043;-61
2022/09/20 10:58:47;;;;;;;1999.90;999.90;;;18.30;97.70;;;;;;5127174;27;20043;-61
2022/09/20 11:01:17;;;;;;;1999.90;999.90;;;18.20;96.80;;;;;;5121967;27;20039;-61
2022/09/20 11:03:51;;;;;;;1999.90;999.90;;;18.30;94.60;;;;;;5098109;28;20043;-61
2022/09/20 11:06:33;;;;;;;1999.90;999.90;;;18.70;95.90;;;;;;5125579;27;20086;-61
2022/09/20 11:09:02;;;;;;;1999.90;999.90;;;18.70;95.70;;;;;;5118481;27;20616;-61
2022/09/20 11:11:35;;;;;;;1999.90;999.90;;;19.10;93.10;;;;;;5136101;27;20666;-61
2022/09/20 11:14:11;;;;;;;1999.90;999.90;;;19.50;93.70;;;;;;5132307;27;20035;-61
2022/09/20 11:16:53;;;;;;;1999.90;999.90;;;20.50;93.10;;;;;;5116095;28;20109;-62
2022/09/20 11:19:37;;;;;;;1999.90;999.90;;;21.60;90.20;;;;;;5115942;28;20054;-62
2022/09/20 11:22:13;;;;;;;1999.90;999.90;;;22.30;86.80;;;;;;5116315;28;20044;-62
2022/09/20 11:24:58;;;;;;;1999.90;999.90;;;22.70;84.00;;;;;;5116187;27;20079;-61
2022/09/20 11:27:46;;;;;;;1999.90;999.90;;;23.00;79.00;;;;;;5126422;27;20047;-62
2022/09/20 11:30:21;;;;;;;1999.90;999.90;;;23.50;82.10;;;;;;5118394;27;20051;-62
2022/09/20 11:32:59;;;;;;;1999.90;999.90;;;23.90;75.20;;;;;;5127258;27;20047;-62
2022/09/20 11:35:24;;;;;;;1999.90;999.90;;;22.30;73.70;;;;;;5116139;27;20393;-61
2022/09/20 11:38:10;;;;;;;1999.90;999.90;;;20.30;80.30;;;;;;5116381;27;20055;-61
2022/09/20 11:40:44;;;;;;;1999.90;999.90;;;19.00;88.00;;;;;;5122720;27;20039;-62
2022/09/20 11:43:13;;;;;;;1999.90;999.90;;;19.00;88.10;;;;;;5115789;28;20047;-61
2022/09/20 11:45:41;;;;;;;1999.90;999.90;;;19.00;87.10;;;;;;5114229;28;20051;-61
2022/09/20 11:48:24;;;;;;;1999.90;999.90;;;18.60;85.20;;;;;;5115914;28;20040;-61
2022/09/20 11:51:11;;;;;;;1999.90;999.90;;;18.40;90.30;;;;;;5126619;27;20405;-61
2022/09/20 11:53:56;;;;;;;1999.90;999.90;;;19.60;86.40;;;;;;5126004;27;20035;-61
2022/09/20 11:56:27;;;;;;;1999.90;999.90;;;20.80;89.30;;;;;;5122323;27;20131;-62
2022/09/20 11:58:58;;;;;;;1999.90;999.90;;;20.80;89.40;;;;;;5121028;27;20047;-61
2022/09/20 12:01:31;;;;;;;1999.90;999.90;;;19.60;91.00;;;;;;5117733;27;20048;-61
2022/09/20 12:04:01;;;;;;;1999.90;999.90;;;18.60;92.50;;;;;;5115321;28;20058;-61
2022/09/20 12:06:32;;;;;;;1999.90;999.90;;;18.00;93.70;;;;;;5099524;27;20055;-61
2022/09/20 12:09:01;;;;;;;1999.90;999.90;;;17.90;95.00;;;;;;5120225;27;20062;-61
2022/09/20 12:11:32;;;;;;;1999.90;999.90;;;18.90;94.20;;;;;;5115219;27;20043;-61
2022/09/20 12:14:04;;;;;;;1999.90;999.90;;;18.70;93.60;;;;;;5115291;28;20061;-61
2022/09/20 12:16:41;;;;;;;1999.90;999.90;;;18.00;94.50;;;;;;5115317;27;20050;-61
2022/09/20 12:19:35;;;;;;;1999.90;999.90;;;17.30;94.70;;;;;;5115648;28;20052;-61
2022/09/20 12:22:02;;;;;;;1999.90;999.90;;;16.80;96.50;;;;;;5114738;28;20051;-62
2022/09/20 12:24:32;;;;;;;1999.90;999.90;;;16.80;96.00;;;;;;5114980;28;20043;-61
2022/09/20 12:27:26;;;;;;;1999.90;999.90;;;17.80;95.10;;;;;;5117218;27;20092;-62
2022/09/20 12:29:51;;;;;;;;;;;19.50;93.20;;;;;;5136335;27;20065;-62
2022/09/20 12:32:33;;;;;;;1999.90;999.90;;;20.60;90.50;;;;;;5135031;27;19919;-62
2022/09/20 12:34:59;;;;;;;1999.90;999.90;;;20.90;88.20;;;;;;5124291;27;20044;-62
2022/09/20 12:37:25;;;;;;;1999.90;999.90;;;21.30;88.90;;;;;;5115316;28;20649;-61
2022/09/20 12:39:54;;;;;;;1999.90;999.90;;;22.10;85.00;;;;;;5113670;28;20498;-62
2022/09/20 12:42:29;;;;;;;1999.90;999.90;;;21.80;83.00;;;;;;5114481;28;20050;-62
2022/09/20 12:45:06;;;;;;;1999.90;999.90;;;22.00;85.40;;;;;;5131395;27;20077;-62
2022/09/20 12:47:35;;;;;;;1999.90;999.90;;;22.50;79.50;;;;;;5135109;27;20051;-62
2022/09/20 12:52:57;;;;;;;1999.90;999.90;;;22.10;78.90;;;;;;5123397;27;20545;-62
2022/09/20 12:55:26;;;;;;;1999.90;999.90;;;23.30;78.90;;;;;;5100930;27;20466;-62
2022/09/20 12:58:03;;;;;;;1999.90;999.90;;;23.60;71.80;;;;;;5116295;27;20065;-61
2022/09/20 13:00:41;;;;;;;1999.90;999.90;;;22.80;73.90;;;;;;5132627;27;20051;-61
2022/09/20 13:03:22;;;;;;;1999.90;999.90;;;22.40;73.10;;;;;;5113888;28;20048;-62
2022/09/20 13:06:16;;;;;;;1999.90;999.90;;;22.80;76.80;;;;;;5113768;28;20440;-62